Whitesboro, NY (13492)

12:00 AM EST die 02o March, anno 2015 (GMT -0500)
Harts Hill | Change Station
CLOSE
Current Station
Personal Weather Stations
Location: Whitesboro, NY
Elevation: 682 ft
Nearby Weather Stations

Elev 682 ft 43.11 °N, 75.32 °W | Updated 6 seconds ago

Nix
Nix
21.7 °F
Feels Like 22 °F
N
0.0
Ventus Variabilis Ventus from Eurus
Gusts 0.0 mph

Hodie
High -- | Low -- °F
--% Chance of Precip.
Yesterday
High -- | Low -- °F
Precip. -- in
6:36 AM 5:51 PM
Waxing Gibbous, 89% visible
Pressio 30.12 in
Visibilitas 4.0 milia passuum
Clouds Aequaliter Nubila 1600 ft
Frigus Venti 22 °F
Frigus in quo Ros apparet 20 °F
Umor 94%
Rainfall 0.00 in
Snow Depth Not available.
UV 0 out of 12
Pollen .40 out of 12
Air Quality Not available.
Flu Activity Not available.
METAR KRME 020453Z AUTO 16003KT 4SM -SN BR OVC016 M06/M07 A3010 RMK AO2 SLP199 P0000 T10611067 410501211 $

More Conditions Fewer Conditions

Pressio 30.12 in
Visibilitas 4.0 milia passuum
Clouds Aequaliter Nubila 1600 ft
Frigus Venti 22 °F
Frigus in quo Ros apparet 20 °F
Umor 94%
Rainfall 0.00 in
Snow Depth Not available.
UV 0 out of 12
Pollen .40 out of 12
Air Quality Not available.
Flu Activity Not available.
METAR KRME 020453Z AUTO 16003KT 4SM -SN BR OVC016 M06/M07 A3010 RMK AO2 SLP199 P0000 T10611067 410501211 $

More Conditions Fewer Conditions

10-Day Weather Forecast

Almanac

Astronomy

Mar. 02, 2015 Rise Set
Actual Time
Civil Twilight
Nautical Twilight
Astronomical Twilight
Moon
Length Of Visible Light
Length of Day
Tomorrow will be .
, % of the Moon is Illuminated

Today's Extremes

State Highs State Lows

Community

WunderPhotos

Upload Photos

1,801,728 photos uploaded!

WunderBlogs® & News

Nearby

Air Quality

  Air Quality AQ Index Pollutant
Not available.

Snow Depth

Station Depth Elevation

Earthquake Activity

City Distance Mag. Time & Date
Minimum magnitude displayed is 2.5.

Coastal Water Temperatures

Locus Calor

Nearby Weather Stations

Winter Weather Advisory
Statement as of 09:50 PM EST die 01o March, anno 2015

... Winter Weather Advisory remains in effect until 7 am EST
Monday...

* locations... Oneida and Otsego counties... as well as the
western Catskills in New York... and the Poconos in northeast
Pennsylvania.

* Accumulations... an additional 1 to 2 inches of snow
overnight... bringing storm totals to 3 to 6 inches.

* Timing... steadier accumulating snow this evening... will
diminish to scattered snow showers and flurries around or
shortly after midnight.

* Temperatures... in the lower 20s.

* Winds... southwest 5 to 10 mph.

* Impacts... snow covered slippery roads and walkways.

Precautionary/preparedness actions...

A Winter Weather Advisory means that periods of snow will cause
travel difficulties. Be prepared for slippery roads and limited
visibilities... and use caution while driving.

Please report snowfall amounts to the National Weather Service by
calling toll free at 1-888-603-1402... or by email at
bgm.Stormreport@noaa.Gov.